sensor_id;sensor_type;location;lat;lon;timestamp;P1;durP1;ratioP1;P2;durP2;ratioP2
14992;SDS011;7592;51.088;13.732;2023-03-03T00:02:23;62.37;;;36.13;;
14992;SDS011;7592;51.088;13.732;2023-03-03T00:07:15;60.77;;;35.77;;
14992;SDS011;7592;51.088;13.732;2023-03-03T00:12:20;68.77;;;37.00;;
14992;SDS011;7592;51.088;13.732;2023-03-03T00:17:16;68.17;;;38.73;;
14992;SDS011;7592;51.088;13.732;2023-03-03T00:27:27;71.33;;;38.03;;
14992;SDS011;7592;51.088;13.732;2023-03-03T00:42:15;66.77;;;38.50;;
14992;SDS011;7592;51.088;13.732;2023-03-03T00:47:25;70.90;;;39.37;;
14992;SDS011;7592;51.088;13.732;2023-03-03T00:52:22;66.20;;;37.67;;
14992;SDS011;7592;51.088;13.732;2023-03-03T00:57:20;64.07;;;38.00;;
14992;SDS011;7592;51.088;13.732;2023-03-03T01:02:13;71.97;;;40.23;;
14992;SDS011;7592;51.088;13.732;2023-03-03T01:07:06;65.03;;;38.03;;
14992;SDS011;7592;51.088;13.732;2023-03-03T01:11:59;69.20;;;37.70;;
14992;SDS011;7592;51.088;13.732;2023-03-03T01:16:51;63.83;;;38.33;;
14992;SDS011;7592;51.088;13.732;2023-03-03T01:21:43;66.60;;;38.53;;
14992;SDS011;7592;51.088;13.732;2023-03-03T01:26:36;64.87;;;37.50;;
14992;SDS011;7592;51.088;13.732;2023-03-03T01:31:28;63.07;;;35.73;;
14992;SDS011;7592;51.088;13.732;2023-03-03T01:36:24;64.43;;;37.93;;
14992;SDS011;7592;51.088;13.732;2023-03-03T01:41:18;64.33;;;37.13;;
14992;SDS011;7592;51.088;13.732;2023-03-03T01:56:12;73.00;;;38.77;;
14992;SDS011;7592;51.088;13.732;2023-03-03T02:01:06;70.53;;;39.67;;
14992;SDS011;7592;51.088;13.732;2023-03-03T02:12:19;61.20;;;36.07;;
14992;SDS011;7592;51.088;13.732;2023-03-03T02:17:17;63.50;;;36.93;;
14992;SDS011;7592;51.088;13.732;2023-03-03T02:22:10;61.63;;;35.27;;
14992;SDS011;7592;51.088;13.732;2023-03-03T02:27:10;64.57;;;34.93;;
14992;SDS011;7592;51.088;13.732;2023-03-03T02:32:06;65.07;;;35.33;;
14992;SDS011;7592;51.088;13.732;2023-03-03T02:36:59;59.30;;;33.23;;
14992;SDS011;7592;51.088;13.732;2023-03-03T02:41:59;59.30;;;33.90;;
14992;SDS011;7592;51.088;13.732;2023-03-03T02:47:01;59.90;;;34.17;;
14992;SDS011;7592;51.088;13.732;2023-03-03T02:51:54;59.10;;;32.73;;
14992;SDS011;7592;51.088;13.732;2023-03-03T02:56:47;59.00;;;31.57;;
14992;SDS011;7592;51.088;13.732;2023-03-03T03:01:40;56.07;;;31.87;;
14992;SDS011;7592;51.088;13.732;2023-03-03T03:06:36;50.03;;;30.60;;
14992;SDS011;7592;51.088;13.732;2023-03-03T03:11:29;52.47;;;30.77;;
14992;SDS011;7592;51.088;13.732;2023-03-03T03:16:22;51.23;;;30.90;;
14992;SDS011;7592;51.088;13.732;2023-03-03T03:21:14;51.17;;;29.43;;
14992;SDS011;7592;51.088;13.732;2023-03-03T03:26:06;49.33;;;29.60;;
14992;SDS011;7592;51.088;13.732;2023-03-03T03:30:59;49.27;;;27.90;;
14992;SDS011;7592;51.088;13.732;2023-03-03T03:35:51;46.20;;;26.80;;
14992;SDS011;7592;51.088;13.732;2023-03-03T03:40:46;46.27;;;27.93;;
14992;SDS011;7592;51.088;13.732;2023-03-03T03:45:38;47.57;;;28.40;;
14992;SDS011;7592;51.088;13.732;2023-03-03T03:50:32;48.40;;;29.70;;
14992;SDS011;7592;51.088;13.732;2023-03-03T03:55:25;49.33;;;28.43;;
14992;SDS011;7592;51.088;13.732;2023-03-03T04:00:18;47.40;;;28.13;;
14992;SDS011;7592;51.088;13.732;2023-03-03T04:05:18;48.53;;;25.57;;
14992;SDS011;7592;51.088;13.732;2023-03-03T04:10:13;43.67;;;25.93;;
14992;SDS011;7592;51.088;13.732;2023-03-03T04:15:06;43.30;;;24.57;;
14992;SDS011;7592;51.088;13.732;2023-03-03T04:20:03;37.67;;;24.20;;
14992;SDS011;7592;51.088;13.732;2023-03-03T04:24:57;41.77;;;24.30;;
14992;SDS011;7592;51.088;13.732;2023-03-03T04:29:50;38.30;;;22.60;;
14992;SDS011;7592;51.088;13.732;2023-03-03T04:34:43;39.97;;;24.60;;
14992;SDS011;7592;51.088;13.732;2023-03-03T04:39:41;44.33;;;25.70;;
14992;SDS011;7592;51.088;13.732;2023-03-03T04:44:33;37.43;;;21.83;;
14992;SDS011;7592;51.088;13.732;2023-03-03T04:49:25;40.17;;;22.93;;
14992;SDS011;7592;51.088;13.732;2023-03-03T04:54:18;36.33;;;21.77;;
14992;SDS011;7592;51.088;13.732;2023-03-03T04:59:10;43.47;;;22.60;;
14992;SDS011;7592;51.088;13.732;2023-03-03T05:04:02;51.90;;;23.03;;
14992;SDS011;7592;51.088;13.732;2023-03-03T05:08:54;43.60;;;23.60;;
14992;SDS011;7592;51.088;13.732;2023-03-03T05:13:46;44.27;;;22.17;;
14992;SDS011;7592;51.088;13.732;2023-03-03T05:18:39;41.80;;;21.70;;
14992;SDS011;7592;51.088;13.732;2023-03-03T05:23:31;43.10;;;21.93;;
14992;SDS011;7592;51.088;13.732;2023-03-03T05:28:24;46.30;;;22.60;;
14992;SDS011;7592;51.088;13.732;2023-03-03T05:33:16;44.13;;;22.97;;
14992;SDS011;7592;51.088;13.732;2023-03-03T05:38:08;43.97;;;22.50;;
14992;SDS011;7592;51.088;13.732;2023-03-03T05:43:01;48.40;;;25.47;;
14992;SDS011;7592;51.088;13.732;2023-03-03T05:47:53;50.73;;;27.57;;
14992;SDS011;7592;51.088;13.732;2023-03-03T05:52:49;46.60;;;23.07;;
14992;SDS011;7592;51.088;13.732;2023-03-03T05:57:42;47.83;;;24.40;;
14992;SDS011;7592;51.088;13.732;2023-03-03T06:02:34;45.77;;;23.53;;
14992;SDS011;7592;51.088;13.732;2023-03-03T06:07:26;47.23;;;23.50;;
14992;SDS011;7592;51.088;13.732;2023-03-03T06:12:18;41.27;;;21.40;;
14992;SDS011;7592;51.088;13.732;2023-03-03T06:17:11;39.47;;;22.23;;
14992;SDS011;7592;51.088;13.732;2023-03-03T06:22:03;47.83;;;28.60;;
14992;SDS011;7592;51.088;13.732;2023-03-03T06:26:56;45.40;;;24.20;;
14992;SDS011;7592;51.088;13.732;2023-03-03T06:31:48;46.73;;;25.30;;
14992;SDS011;7592;51.088;13.732;2023-03-03T06:36:40;46.67;;;23.63;;
14992;SDS011;7592;51.088;13.732;2023-03-03T06:41:32;48.67;;;23.97;;
14992;SDS011;7592;51.088;13.732;2023-03-03T06:46:25;43.10;;;23.07;;
14992;SDS011;7592;51.088;13.732;2023-03-03T06:51:24;40.77;;;21.93;;
14992;SDS011;7592;51.088;13.732;2023-03-03T06:56:20;40.77;;;22.40;;
14992;SDS011;7592;51.088;13.732;2023-03-03T07:01:15;35.50;;;20.83;;
14992;SDS011;7592;51.088;13.732;2023-03-03T07:06:21;35.40;;;18.73;;
14992;SDS011;7592;51.088;13.732;2023-03-03T07:11:18;34.87;;;20.27;;
14992;SDS011;7592;51.088;13.732;2023-03-03T07:16:12;34.30;;;20.07;;
14992;SDS011;7592;51.088;13.732;2023-03-03T07:21:16;37.67;;;21.17;;
14992;SDS011;7592;51.088;13.732;2023-03-03T07:26:15;37.90;;;20.97;;
14992;SDS011;7592;51.088;13.732;2023-03-03T07:31:24;37.20;;;20.23;;
14992;SDS011;7592;51.088;13.732;2023-03-03T07:41:20;37.40;;;21.93;;
14992;SDS011;7592;51.088;13.732;2023-03-03T07:46:20;34.40;;;19.03;;
14992;SDS011;7592;51.088;13.732;2023-03-03T07:51:20;34.83;;;18.13;;
14992;SDS011;7592;51.088;13.732;2023-03-03T07:56:27;28.97;;;17.40;;
14992;SDS011;7592;51.088;13.732;2023-03-03T08:01:34;28.90;;;16.67;;
14992;SDS011;7592;51.088;13.732;2023-03-03T08:06:36;29.50;;;16.47;;
14992;SDS011;7592;51.088;13.732;2023-03-03T08:11:46;27.07;;;15.00;;
14992;SDS011;7592;51.088;13.732;2023-03-03T08:16:40;22.83;;;15.20;;
14992;SDS011;7592;51.088;13.732;2023-03-03T08:21:32;22.27;;;13.73;;
14992;SDS011;7592;51.088;13.732;2023-03-03T08:26:26;19.40;;;13.47;;
14992;SDS011;7592;51.088;13.732;2023-03-03T08:31:18;20.33;;;12.60;;
14992;SDS011;7592;51.088;13.732;2023-03-03T08:36:30;17.50;;;12.03;;
14992;SDS011;7592;51.088;13.732;2023-03-03T08:41:25;20.47;;;13.00;;
14992;SDS011;7592;51.088;13.732;2023-03-03T08:46:17;21.27;;;13.63;;
14992;SDS011;7592;51.088;13.732;2023-03-03T08:51:09;16.93;;;12.07;;
14992;SDS011;7592;51.088;13.732;2023-03-03T08:56:01;19.83;;;12.23;;
14992;SDS011;7592;51.088;13.732;2023-03-03T09:00:53;18.63;;;12.27;;
14992;SDS011;7592;51.088;13.732;2023-03-03T09:05:45;18.07;;;11.77;;
14992;SDS011;7592;51.088;13.732;2023-03-03T09:10:37;13.93;;;10.13;;
14992;SDS011;7592;51.088;13.732;2023-03-03T09:15:31;16.33;;;10.67;;
14992;SDS011;7592;51.088;13.732;2023-03-03T09:25:31;13.77;;;9.07;;
14992;SDS011;7592;51.088;13.732;2023-03-03T09:46:09;12.97;;;9.73;;
14992;SDS011;7592;51.088;13.732;2023-03-03T09:56:05;12.20;;;7.57;;
14992;SDS011;7592;51.088;13.732;2023-03-03T10:16:21;8.50;;;6.73;;
14992;SDS011;7592;51.088;13.732;2023-03-03T10:26:45;7.80;;;5.77;;
14992;SDS011;7592;51.088;13.732;2023-03-03T10:32:46;8.60;;;6.40;;
14992;SDS011;7592;51.088;13.732;2023-03-03T10:48:41;7.10;;;5.53;;
14992;SDS011;7592;51.088;13.732;2023-03-03T10:53:58;9.40;;;6.30;;
14992;SDS011;7592;51.088;13.732;2023-03-03T11:14:39;6.13;;;5.10;;
14992;SDS011;7592;51.088;13.732;2023-03-03T11:40:29;9.97;;;7.70;;
14992;SDS011;7592;51.088;13.732;2023-03-03T11:45:41;5.87;;;5.23;;
14992;SDS011;7592;51.088;13.732;2023-03-03T11:50:45;6.80;;;5.13;;
14992;SDS011;7592;51.088;13.732;2023-03-03T11:55:45;10.10;;;5.47;;
14992;SDS011;7592;51.088;13.732;2023-03-03T12:00:56;8.23;;;5.67;;
14992;SDS011;7592;51.088;13.732;2023-03-03T12:06:10;6.33;;;5.17;;
14992;SDS011;7592;51.088;13.732;2023-03-03T12:16:38;8.17;;;5.13;;
14992;SDS011;7592;51.088;13.732;2023-03-03T12:31:54;5.47;;;4.20;;
14992;SDS011;7592;51.088;13.732;2023-03-03T12:37:22;6.73;;;5.17;;
14992;SDS011;7592;51.088;13.732;2023-03-03T13:03:16;7.23;;;5.60;;
14992;SDS011;7592;51.088;13.732;2023-03-03T13:08:28;6.73;;;5.40;;
14992;SDS011;7592;51.088;13.732;2023-03-03T13:13:55;8.37;;;6.53;;
14992;SDS011;7592;51.088;13.732;2023-03-03T13:33:53;11.47;;;8.33;;
14992;SDS011;7592;51.088;13.732;2023-03-03T13:38:48;10.23;;;7.77;;
14992;SDS011;7592;51.088;13.732;2023-03-03T14:14:46;8.67;;;6.30;;
14992;SDS011;7592;51.088;13.732;2023-03-03T14:19:46;9.23;;;6.20;;
14992;SDS011;7592;51.088;13.732;2023-03-03T14:35:16;9.80;;;7.07;;
14992;SDS011;7592;51.088;13.732;2023-03-03T14:40:29;10.70;;;7.83;;
14992;SDS011;7592;51.088;13.732;2023-03-03T14:45:30;10.37;;;8.07;;
14992;SDS011;7592;51.088;13.732;2023-03-03T14:50:34;11.73;;;7.40;;
14992;SDS011;7592;51.088;13.732;2023-03-03T14:55:30;10.07;;;8.57;;
14992;SDS011;7592;51.088;13.732;2023-03-03T15:00:27;8.93;;;7.10;;
14992;SDS011;7592;51.088;13.732;2023-03-03T15:05:26;9.50;;;6.70;;
14992;SDS011;7592;51.088;13.732;2023-03-03T15:10:33;8.63;;;6.93;;
14992;SDS011;7592;51.088;13.732;2023-03-03T15:15:28;13.30;;;8.67;;
14992;SDS011;7592;51.088;13.732;2023-03-03T15:20:37;12.30;;;7.73;;
14992;SDS011;7592;51.088;13.732;2023-03-03T15:25:32;10.17;;;7.23;;
14992;SDS011;7592;51.088;13.732;2023-03-03T15:30:43;8.57;;;6.90;;
14992;SDS011;7592;51.088;13.732;2023-03-03T15:36:03;13.60;;;9.10;;
14992;SDS011;7592;51.088;13.732;2023-03-03T15:41:07;11.23;;;8.23;;
14992;SDS011;7592;51.088;13.732;2023-03-03T15:46:20;12.47;;;8.53;;
14992;SDS011;7592;51.088;13.732;2023-03-03T15:56:35;21.03;;;12.70;;
14992;SDS011;7592;51.088;13.732;2023-03-03T16:02:08;16.37;;;10.43;;
14992;SDS011;7592;51.088;13.732;2023-03-03T16:07:27;16.07;;;10.77;;
14992;SDS011;7592;51.088;13.732;2023-03-03T16:12:42;21.43;;;12.47;;
14992;SDS011;7592;51.088;13.732;2023-03-03T16:28:07;20.70;;;11.93;;
14992;SDS011;7592;51.088;13.732;2023-03-03T16:33:23;23.10;;;14.37;;
14992;SDS011;7592;51.088;13.732;2023-03-03T16:38:36;27.60;;;17.10;;
14992;SDS011;7592;51.088;13.732;2023-03-03T16:48:59;25.80;;;15.60;;
14992;SDS011;7592;51.088;13.732;2023-03-03T16:54:04;23.67;;;14.33;;
14992;SDS011;7592;51.088;13.732;2023-03-03T16:59:24;24.50;;;14.87;;
14992;SDS011;7592;51.088;13.732;2023-03-03T17:24:51;29.57;;;16.87;;
14992;SDS011;7592;51.088;13.732;2023-03-03T17:34:58;32.77;;;17.77;;
14992;SDS011;7592;51.088;13.732;2023-03-03T17:40:23;34.23;;;20.67;;
14992;SDS011;7592;51.088;13.732;2023-03-03T17:45:18;30.37;;;18.20;;
14992;SDS011;7592;51.088;13.732;2023-03-03T18:11:11;34.37;;;20.87;;
14992;SDS011;7592;51.088;13.732;2023-03-03T18:26:44;29.40;;;18.10;;
14992;SDS011;7592;51.088;13.732;2023-03-03T18:31:46;33.83;;;20.50;;
14992;SDS011;7592;51.088;13.732;2023-03-03T18:37:07;36.37;;;21.10;;
14992;SDS011;7592;51.088;13.732;2023-03-03T18:47:16;40.53;;;22.83;;
14992;SDS011;7592;51.088;13.732;2023-03-03T18:52:16;38.03;;;22.83;;
14992;SDS011;7592;51.088;13.732;2023-03-03T18:57:18;38.07;;;24.20;;
14992;SDS011;7592;51.088;13.732;2023-03-03T19:07:18;39.17;;;22.70;;
14992;SDS011;7592;51.088;13.732;2023-03-03T19:22:30;43.77;;;23.63;;
14992;SDS011;7592;51.088;13.732;2023-03-03T19:27:34;38.23;;;21.67;;
14992;SDS011;7592;51.088;13.732;2023-03-03T19:38:07;43.00;;;23.63;;
14992;SDS011;7592;51.088;13.732;2023-03-03T19:43:17;40.50;;;22.63;;
14992;SDS011;7592;51.088;13.732;2023-03-03T19:48:28;40.73;;;23.53;;
14992;SDS011;7592;51.088;13.732;2023-03-03T20:08:55;40.83;;;21.83;;
14992;SDS011;7592;51.088;13.732;2023-03-03T20:50:16;44.73;;;21.33;;
14992;SDS011;7592;51.088;13.732;2023-03-03T21:00:11;37.17;;;20.60;;
14992;SDS011;7592;51.088;13.732;2023-03-03T21:05:11;40.30;;;20.70;;
14992;SDS011;7592;51.088;13.732;2023-03-03T21:10:10;47.07;;;22.60;;
14992;SDS011;7592;51.088;13.732;2023-03-03T21:15:20;44.37;;;22.80;;
14992;SDS011;7592;51.088;13.732;2023-03-03T21:30:33;50.67;;;25.10;;
14992;SDS011;7592;51.088;13.732;2023-03-03T21:35:25;55.40;;;25.53;;
14992;SDS011;7592;51.088;13.732;2023-03-03T21:40:24;55.20;;;26.03;;
14992;SDS011;7592;51.088;13.732;2023-03-03T21:45:18;55.20;;;26.90;;
14992;SDS011;7592;51.088;13.732;2023-03-03T21:50:14;56.43;;;27.70;;
14992;SDS011;7592;51.088;13.732;2023-03-03T21:55:07;56.83;;;27.70;;
14992;SDS011;7592;51.088;13.732;2023-03-03T22:00:00;60.53;;;28.10;;
14992;SDS011;7592;51.088;13.732;2023-03-03T22:04:58;61.90;;;28.23;;
14992;SDS011;7592;51.088;13.732;2023-03-03T22:09:50;57.70;;;28.10;;
14992;SDS011;7592;51.088;13.732;2023-03-03T22:14:42;56.93;;;28.10;;
14992;SDS011;7592;51.088;13.732;2023-03-03T22:19:34;57.93;;;30.03;;
14992;SDS011;7592;51.088;13.732;2023-03-03T22:24:28;59.33;;;27.97;;
14992;SDS011;7592;51.088;13.732;2023-03-03T22:29:21;52.43;;;26.70;;
14992;SDS011;7592;51.088;13.732;2023-03-03T22:34:13;59.03;;;29.63;;
14992;SDS011;7592;51.088;13.732;2023-03-03T22:39:06;54.63;;;29.03;;
14992;SDS011;7592;51.088;13.732;2023-03-03T22:43:58;48.00;;;25.80;;
14992;SDS011;7592;51.088;13.732;2023-03-03T22:48:50;43.07;;;24.70;;
14992;SDS011;7592;51.088;13.732;2023-03-03T22:53:42;45.10;;;23.40;;
14992;SDS011;7592;51.088;13.732;2023-03-03T22:58:34;39.93;;;22.77;;
14992;SDS011;7592;51.088;13.732;2023-03-03T23:03:26;41.33;;;22.10;;
14992;SDS011;7592;51.088;13.732;2023-03-03T23:08:18;41.00;;;23.93;;
14992;SDS011;7592;51.088;13.732;2023-03-03T23:13:11;38.23;;;21.50;;
14992;SDS011;7592;51.088;13.732;2023-03-03T23:18:04;36.60;;;21.23;;
14992;SDS011;7592;51.088;13.732;2023-03-03T23:22:56;39.80;;;21.00;;
14992;SDS011;7592;51.088;13.732;2023-03-03T23:27:49;36.30;;;20.97;;
14992;SDS011;7592;51.088;13.732;2023-03-03T23:32:41;38.63;;;21.63;;
14992;SDS011;7592;51.088;13.732;2023-03-03T23:37:35;36.87;;;21.60;;
14992;SDS011;7592;51.088;13.732;2023-03-03T23:42:27;38.07;;;21.47;;
14992;SDS011;7592;51.088;13.732;2023-03-03T23:47:21;36.67;;;21.30;;
14992;SDS011;7592;51.088;13.732;2023-03-03T23:52:14;34.57;;;20.50;;
14992;SDS011;7592;51.088;13.732;2023-03-03T23:57:07;35.67;;;21.83;;
